createdAt,value
2022-09-26T00:01:16.194Z,91
2022-09-26T00:16:16.174Z,91
2022-09-26T00:31:16.232Z,92
2022-09-26T00:46:16.174Z,92
2022-09-26T01:01:16.221Z,92
2022-09-26T01:16:16.089Z,92
2022-09-26T01:31:16.084Z,92
2022-09-26T01:46:16.133Z,93
2022-09-26T02:01:16.112Z,93
2022-09-26T02:16:16.023Z,93
2022-09-26T02:31:15.983Z,93
2022-09-26T02:46:16.004Z,93
2022-09-26T03:01:16.057Z,93
2022-09-26T03:16:15.928Z,93
2022-09-26T03:31:15.960Z,93
2022-09-26T03:46:16.072Z,93
2022-09-26T04:01:15.945Z,93
2022-09-26T04:16:15.936Z,93
2022-09-26T04:31:15.929Z,94
2022-09-26T04:46:20.117Z,94
2022-09-26T05:01:15.885Z,94
2022-09-26T05:16:15.815Z,94
2022-09-26T05:31:15.800Z,94
2022-09-26T05:46:15.852Z,94
2022-09-26T06:01:15.831Z,94
2022-09-26T06:31:15.775Z,94
2022-09-26T06:46:15.717Z,95
2022-09-26T07:01:15.825Z,94
2022-09-26T07:16:15.682Z,94
2022-09-26T07:31:15.705Z,94
2022-09-26T07:46:15.648Z,94
2022-09-26T08:01:15.656Z,93
2022-09-26T08:16:15.581Z,92
2022-09-26T08:31:15.579Z,89
2022-09-26T08:46:15.538Z,85
2022-09-26T09:01:15.557Z,77
2022-09-26T09:16:15.550Z,75
2022-09-26T09:31:15.536Z,75
2022-09-26T09:46:15.477Z,73
2022-09-26T10:01:15.415Z,71
2022-09-26T10:16:15.559Z,69
2022-09-26T10:31:15.471Z,70
2022-09-26T10:46:15.379Z,68
2022-09-26T11:01:15.406Z,66
2022-09-26T11:16:15.336Z,63
2022-09-26T11:31:15.300Z,61
2022-09-26T11:46:15.359Z,62
2022-09-26T12:01:15.208Z,62
2022-09-26T12:16:15.245Z,59
2022-09-26T12:31:19.481Z,60
2022-09-26T12:46:15.134Z,59
2022-09-26T13:01:15.183Z,58
2022-09-26T13:16:15.099Z,57
2022-09-26T13:31:15.116Z,58
2022-09-26T13:46:15.063Z,57
2022-09-26T14:01:15.046Z,57
2022-09-26T14:16:15.059Z,57
2022-09-26T14:31:15.007Z,58
2022-09-26T14:46:15.002Z,58
2022-09-26T15:01:14.954Z,57
2022-09-26T15:31:14.916Z,56
2022-09-26T15:46:14.876Z,55
2022-09-26T16:01:14.869Z,56
2022-09-26T16:16:14.836Z,55
2022-09-26T16:31:14.791Z,55
2022-09-26T16:46:14.815Z,55
2022-09-26T17:01:14.760Z,54
2022-09-26T17:16:14.772Z,56
2022-09-26T17:46:15.827Z,59
2022-09-26T18:01:14.704Z,59
2022-09-26T18:16:14.755Z,60
2022-09-26T18:31:14.628Z,61
2022-09-26T18:46:14.616Z,61
2022-09-26T19:01:14.707Z,62
2022-09-26T19:16:14.545Z,63
2022-09-26T19:31:14.596Z,64
2022-09-26T19:46:14.539Z,65
2022-09-26T20:01:14.553Z,66
2022-09-26T20:16:14.390Z,67
2022-09-26T20:31:14.465Z,69
2022-09-26T20:46:14.407Z,70
2022-09-26T21:01:14.368Z,70
2022-09-26T21:16:14.303Z,70
2022-09-26T21:31:14.379Z,70
2022-09-26T21:46:14.393Z,70
2022-09-26T22:01:14.400Z,70
2022-09-26T22:16:14.294Z,71
2022-09-26T22:31:14.252Z,72
2022-09-26T22:46:14.217Z,73
2022-09-26T23:01:14.197Z,74
2022-09-26T23:16:14.158Z,78
2022-09-26T23:31:14.185Z,80
2022-09-26T23:46:14.295Z,81
